createdAt,value
2023-02-11T00:02:10.644Z,9.40
2023-02-11T00:04:38.144Z,8.50
2023-02-11T00:07:05.575Z,5.80
2023-02-11T00:09:33.066Z,6.27
2023-02-11T00:12:00.161Z,4.57
2023-02-11T00:14:27.617Z,8.53
2023-02-11T00:16:55.229Z,4.30
2023-02-11T00:19:22.742Z,8.80
2023-02-11T00:21:50.243Z,4.40
2023-02-11T00:24:17.752Z,6.07
2023-02-11T00:26:45.003Z,5.63
2023-02-11T00:29:12.485Z,4.77
2023-02-11T00:31:40.976Z,5.27
2023-02-11T00:34:08.578Z,8.20
2023-02-11T00:36:35.724Z,7.40
2023-02-11T00:39:03.671Z,5.47
2023-02-11T00:41:31.773Z,7.17
2023-02-11T00:44:00.684Z,4.90
2023-02-11T00:46:28.226Z,6.00
2023-02-11T00:48:58.034Z,6.87
2023-02-11T00:51:27.671Z,6.60
2023-02-11T00:53:55.526Z,9.33
2023-02-11T00:56:23.890Z,5.57
2023-02-11T00:58:51.392Z,7.80
2023-02-11T01:01:19.125Z,6.90
2023-02-11T01:03:47.436Z,8.73
2023-02-11T01:06:15.503Z,7.70
2023-02-11T01:08:43.095Z,5.73
2023-02-11T01:11:21.036Z,4.77
2023-02-11T01:13:50.173Z,4.97
2023-02-11T01:16:18.666Z,9.20
2023-02-11T01:18:46.633Z,6.50
2023-02-11T01:21:14.946Z,4.97
2023-02-11T01:23:43.797Z,6.80
2023-02-11T01:26:12.085Z,6.57
2023-02-11T01:28:40.041Z,7.70
2023-02-11T01:31:07.656Z,6.60
2023-02-11T01:33:35.341Z,5.57
2023-02-11T01:36:05.131Z,8.33
2023-02-11T01:38:33.457Z,8.27
2023-02-11T01:41:09.123Z,4.13
2023-02-11T01:43:41.635Z,4.93
2023-02-11T01:46:39.025Z,6.03
2023-02-11T01:49:11.061Z,7.43
2023-02-11T01:51:49.556Z,8.30
2023-02-11T01:54:41.491Z,6.03
2023-02-11T01:57:22.183Z,8.10
2023-02-11T02:00:12.960Z,7.87
2023-02-11T02:03:17.173Z,7.53
2023-02-11T02:06:31.217Z,5.20
2023-02-11T02:09:07.364Z,5.53
2023-02-11T02:11:35.244Z,5.23
2023-02-11T02:14:03.769Z,7.60
2023-02-11T02:16:36.299Z,4.60
2023-02-11T02:20:19.556Z,4.70
2023-02-11T02:23:32.442Z,4.13
2023-02-11T02:26:39.849Z,9.07
2023-02-11T02:29:07.256Z,6.47
2023-02-11T02:32:24.338Z,7.97
2023-02-11T02:34:51.778Z,5.03
2023-02-11T02:37:32.021Z,4.93
2023-02-11T02:40:11.698Z,5.27
2023-02-11T02:42:42.025Z,5.03
2023-02-11T02:45:11.855Z,8.30
2023-02-11T02:47:39.355Z,5.50
2023-02-11T02:50:08.347Z,6.10
2023-02-11T02:52:42.125Z,7.20
2023-02-11T02:56:11.713Z,6.43
2023-02-11T02:59:32.681Z,6.17
2023-02-11T03:02:30.324Z,4.50
2023-02-11T03:05:30.714Z,5.70
2023-02-11T03:08:34.404Z,5.10
2023-02-11T03:11:03.454Z,4.77
2023-02-11T03:13:35.480Z,8.10
2023-02-11T03:16:11.636Z,3.17
2023-02-11T03:18:44.657Z,6.50
2023-02-11T03:21:14.189Z,6.07
2023-02-11T03:23:54.029Z,4.47
2023-02-11T03:26:38.619Z,7.23
2023-02-11T03:29:15.018Z,7.40
2023-02-11T03:32:19.213Z,5.37
2023-02-11T03:35:04.542Z,7.80
2023-02-11T03:37:43.674Z,7.77
2023-02-11T03:40:17.072Z,6.70
2023-02-11T03:42:51.768Z,4.63
2023-02-11T03:45:23.446Z,8.20
2023-02-11T03:48:25.214Z,5.77
2023-02-11T03:50:54.647Z,8.33
2023-02-11T03:53:23.181Z,8.47
2023-02-11T03:55:54.026Z,5.10
2023-02-11T03:58:21.448Z,8.90
2023-02-11T04:00:49.109Z,6.53
2023-02-11T04:03:16.335Z,5.20
2023-02-11T04:05:43.868Z,7.37
2023-02-11T04:08:11.646Z,4.80
2023-02-11T04:10:39.340Z,6.20
2023-02-11T04:13:06.840Z,4.73
2023-02-11T04:15:34.415Z,6.07
2023-02-11T04:18:03.414Z,6.20
2023-02-11T04:20:31.101Z,6.53
2023-02-11T04:22:58.548Z,5.23
2023-02-11T04:25:26.343Z,4.40
2023-02-11T04:27:53.790Z,5.70
2023-02-11T04:30:21.355Z,7.30
2023-02-11T04:32:48.815Z,8.77
2023-02-11T04:35:16.327Z,6.60
2023-02-11T04:37:44.019Z,6.30
2023-02-11T04:40:12.179Z,5.23
2023-02-11T04:42:39.604Z,7.73
2023-02-11T04:45:07.982Z,9.00
2023-02-11T04:47:36.240Z,7.87
2023-02-11T04:50:04.102Z,5.63
2023-02-11T04:52:31.201Z,9.50
2023-02-11T04:54:58.672Z,7.33
2023-02-11T04:57:26.199Z,7.83
2023-02-11T04:59:53.646Z,4.30
2023-02-11T05:02:20.755Z,7.30
2023-02-11T05:04:48.314Z,5.60
2023-02-11T05:07:15.756Z,6.13
2023-02-11T05:09:43.203Z,7.37
2023-02-11T05:12:10.824Z,5.97
2023-02-11T05:14:37.977Z,7.27
2023-02-11T05:17:05.531Z,7.07
2023-02-11T05:19:33.149Z,8.70
2023-02-11T05:22:03.297Z,4.47
2023-02-11T05:24:32.764Z,5.40
2023-02-11T05:27:00.340Z,6.43
2023-02-11T05:29:28.152Z,8.20
2023-02-11T05:31:55.675Z,5.40
2023-02-11T05:34:22.790Z,7.33
2023-02-11T05:36:50.401Z,3.83
2023-02-11T05:39:17.479Z,7.97
2023-02-11T05:41:44.576Z,5.93
2023-02-11T05:44:11.730Z,9.60
2023-02-11T05:46:38.883Z,4.97
2023-02-11T05:49:06.423Z,4.70
2023-02-11T05:51:34.030Z,5.10
2023-02-11T05:54:01.352Z,7.73
2023-02-11T05:56:28.584Z,6.50
2023-02-11T05:58:55.638Z,5.77
2023-02-11T06:01:22.681Z,8.53
2023-02-11T06:03:51.335Z,9.67
2023-02-11T06:06:18.953Z,6.17
2023-02-11T06:08:46.384Z,7.93
2023-02-11T06:11:16.652Z,4.33
2023-02-11T06:13:44.172Z,10.80
2023-02-11T06:16:11.322Z,6.90
2023-02-11T06:18:38.911Z,6.40
2023-02-11T06:21:11.497Z,5.33
2023-02-11T06:23:39.182Z,6.47
2023-02-11T06:26:09.555Z,8.77
2023-02-11T06:28:38.762Z,5.83
2023-02-11T06:31:09.844Z,4.50
2023-02-11T06:33:37.605Z,8.20
2023-02-11T06:36:12.946Z,7.50
2023-02-11T06:38:40.294Z,7.83
2023-02-11T06:41:11.663Z,8.03
2023-02-11T06:43:39.985Z,5.17
2023-02-11T06:46:08.476Z,8.23
2023-02-11T06:48:35.985Z,7.03
2023-02-11T06:51:06.905Z,8.00
2023-02-11T06:53:41.178Z,5.60
2023-02-11T06:56:12.479Z,9.90
2023-02-11T06:58:39.637Z,9.47
2023-02-11T07:01:11.951Z,9.00
2023-02-11T07:03:43.120Z,5.67
2023-02-11T07:06:17.014Z,10.37
2023-02-11T07:08:45.987Z,8.43
2023-02-11T07:11:24.937Z,7.13
2023-02-11T07:13:54.381Z,8.37
2023-02-11T07:16:22.165Z,3.47
2023-02-11T07:18:49.534Z,5.77
2023-02-11T07:21:22.256Z,10.77
2023-02-11T07:23:49.359Z,8.23
2023-02-11T07:26:22.598Z,10.63
2023-02-11T07:28:50.483Z,8.90
2023-02-11T07:31:23.410Z,10.50
2023-02-11T07:33:52.605Z,8.90
2023-02-11T07:36:20.288Z,7.27
2023-02-11T07:38:47.790Z,6.50
2023-02-11T07:41:19.460Z,8.87
2023-02-11T07:43:47.529Z,6.30
2023-02-11T07:46:20.471Z,7.93
2023-02-11T07:48:48.480Z,6.30
2023-02-11T07:51:19.389Z,7.40
2023-02-11T07:53:47.445Z,8.90
2023-02-11T07:56:17.078Z,8.37
2023-02-11T07:58:44.594Z,8.57
2023-02-11T08:01:25.071Z,5.40
2023-02-11T08:03:53.042Z,8.63
2023-02-11T08:06:23.131Z,5.80
2023-02-11T08:08:50.391Z,6.83
2023-02-11T08:11:24.942Z,5.47
2023-02-11T08:13:53.065Z,8.80
2023-02-11T08:16:31.024Z,7.97
2023-02-11T08:19:01.740Z,7.77
2023-02-11T08:21:29.442Z,5.80
2023-02-11T08:23:57.431Z,8.67
2023-02-11T08:26:29.244Z,8.43
2023-02-11T08:28:58.451Z,6.07
2023-02-11T08:31:35.869Z,6.50
2023-02-11T08:34:03.420Z,9.10
2023-02-11T08:36:34.396Z,7.57
2023-02-11T08:39:17.934Z,4.87
2023-02-11T08:41:48.933Z,7.33
2023-02-11T08:44:18.374Z,4.70
2023-02-11T08:46:46.262Z,9.13
2023-02-11T08:49:14.106Z,6.70
2023-02-11T08:51:42.088Z,6.87
2023-02-11T08:54:10.159Z,9.27
2023-02-11T08:56:39.216Z,9.90
2023-02-11T08:59:09.247Z,8.67
2023-02-11T09:01:36.902Z,8.60
2023-02-11T09:04:04.456Z,10.77
2023-02-11T09:06:32.659Z,8.90
2023-02-11T09:08:59.905Z,8.10
2023-02-11T09:11:32.814Z,7.40
2023-02-11T09:14:00.902Z,10.10
2023-02-11T09:16:31.842Z,9.83
2023-02-11T09:19:01.556Z,9.27
2023-02-11T09:21:29.948Z,11.60
2023-02-11T09:23:57.777Z,8.33
2023-02-11T09:26:29.109Z,7.90
2023-02-11T09:28:57.064Z,10.97
2023-02-11T09:31:27.480Z,9.33
2023-02-11T09:33:59.204Z,9.27
2023-02-11T09:36:30.452Z,9.23
2023-02-11T09:39:02.149Z,11.87
2023-02-11T09:42:02.636Z,8.10
2023-02-11T09:44:34.727Z,7.67
2023-02-11T09:47:28.199Z,8.70
2023-02-11T09:50:10.908Z,12.83
2023-02-11T09:53:02.440Z,8.70
2023-02-11T09:55:39.753Z,10.43
2023-02-11T09:58:40.613Z,10.30
2023-02-11T10:01:21.987Z,9.03
2023-02-11T10:04:11.296Z,8.90
2023-02-11T10:07:11.000Z,11.47
2023-02-11T10:10:09.863Z,8.60
2023-02-11T10:12:57.850Z,11.77
2023-02-11T10:16:22.615Z,9.07
2023-02-11T10:19:20.517Z,10.67
2023-02-11T10:22:24.964Z,9.57
2023-02-11T10:24:58.520Z,11.27
2023-02-11T10:27:34.570Z,10.67
2023-02-11T10:30:32.381Z,13.90
2023-02-11T10:33:25.861Z,12.03
2023-02-11T10:35:53.256Z,9.23
2023-02-11T10:38:20.451Z,9.73
2023-02-11T10:40:47.629Z,13.90
2023-02-11T10:43:19.323Z,10.07
2023-02-11T10:45:52.548Z,11.17
2023-02-11T10:48:42.571Z,10.60
2023-02-11T10:51:20.351Z,9.70
2023-02-11T10:54:13.904Z,11.97
2023-02-11T10:56:52.277Z,12.20
2023-02-11T10:59:33.169Z,15.80
2023-02-11T11:02:04.584Z,13.77
2023-02-11T11:04:39.961Z,10.27
2023-02-11T11:07:29.417Z,10.63
2023-02-11T11:10:35.845Z,10.30
2023-02-11T11:13:03.737Z,9.03
2023-02-11T11:15:32.372Z,13.10
2023-02-11T11:18:23.394Z,15.60
2023-02-11T11:21:33.420Z,11.30
2023-02-11T11:24:03.729Z,12.00
2023-02-11T11:26:47.375Z,11.97
2023-02-11T11:29:39.601Z,13.83
2023-02-11T11:32:15.231Z,12.37
2023-02-11T11:34:48.756Z,7.83
2023-02-11T11:37:28.578Z,9.90
2023-02-11T11:40:22.029Z,7.87
2023-02-11T11:43:11.149Z,11.53
2023-02-11T11:45:38.346Z,7.07
2023-02-11T11:48:26.975Z,10.97
2023-02-11T11:51:04.274Z,9.77
2023-02-11T11:53:46.008Z,8.37
2023-02-11T11:56:26.307Z,8.50
2023-02-11T11:58:54.527Z,8.07
2023-02-11T12:01:33.664Z,12.60
2023-02-11T12:04:13.707Z,7.53
2023-02-11T12:06:48.757Z,9.33
2023-02-11T12:09:34.392Z,11.50
2023-02-11T12:12:32.550Z,12.10
2023-02-11T12:15:07.548Z,11.70
2023-02-11T12:17:59.047Z,11.00
2023-02-11T12:20:48.987Z,11.20
2023-02-11T12:23:48.853Z,10.90
2023-02-11T12:26:24.380Z,12.17
2023-02-11T12:29:24.226Z,11.73
2023-02-11T12:32:33.523Z,11.90
2023-02-11T12:35:38.660Z,7.70
2023-02-11T12:38:56.305Z,9.40
2023-02-11T12:41:46.045Z,13.23
2023-02-11T12:44:52.443Z,10.80
2023-02-11T12:47:53.475Z,6.83
2023-02-11T12:50:46.603Z,17.73
2023-02-11T12:53:41.894Z,9.73
2023-02-11T12:56:40.429Z,9.30
2023-02-11T12:59:31.896Z,7.57
2023-02-11T13:02:04.340Z,11.10
2023-02-11T13:04:47.115Z,11.83
2023-02-11T13:07:33.231Z,7.73
2023-02-11T13:10:14.098Z,8.90
2023-02-11T13:13:06.614Z,10.03
2023-02-11T13:15:33.741Z,10.63
2023-02-11T13:18:20.167Z,8.20
2023-02-11T13:21:09.082Z,12.13
2023-02-11T13:23:54.341Z,9.37
2023-02-11T13:26:42.331Z,10.27
2023-02-11T13:29:43.435Z,7.47
2023-02-11T13:32:14.561Z,9.67
2023-02-11T13:34:41.611Z,10.00
2023-02-11T13:37:39.338Z,11.00
2023-02-11T13:40:26.550Z,8.73
2023-02-11T13:42:59.182Z,9.07
2023-02-11T13:45:46.368Z,9.63
2023-02-11T13:48:48.064Z,12.57
2023-02-11T13:51:36.455Z,8.47
2023-02-11T13:54:06.826Z,10.70
2023-02-11T13:56:41.121Z,13.03
2023-02-11T13:59:27.557Z,12.27
2023-02-11T14:02:19.343Z,10.87
2023-02-11T14:05:23.228Z,12.03
2023-02-11T14:08:33.332Z,15.67
2023-02-11T14:11:12.492Z,14.63
2023-02-11T14:13:48.853Z,12.00
2023-02-11T14:16:36.484Z,12.47
2023-02-11T14:19:06.390Z,11.03
2023-02-11T14:21:38.976Z,11.53
2023-02-11T14:24:07.126Z,12.10
2023-02-11T14:27:04.866Z,9.63
2023-02-11T14:29:40.674Z,12.90
2023-02-11T14:32:29.706Z,9.87
2023-02-11T14:35:18.990Z,12.00
2023-02-11T14:37:59.189Z,10.50
2023-02-11T14:40:45.835Z,12.70
2023-02-11T14:43:20.819Z,12.43
2023-02-11T14:46:01.619Z,12.90
2023-02-11T14:48:36.281Z,17.27
2023-02-11T14:51:14.946Z,13.90
2023-02-11T14:53:50.827Z,14.10
2023-02-11T14:56:34.603Z,12.87
2023-02-11T14:59:02.801Z,17.40
2023-02-11T15:01:40.599Z,10.53
2023-02-11T15:04:30.808Z,11.00
2023-02-11T15:07:05.085Z,9.60
2023-02-11T15:09:52.613Z,16.00
2023-02-11T15:12:28.412Z,8.87
2023-02-11T15:14:59.545Z,9.30
2023-02-11T15:17:31.868Z,13.10
2023-02-11T15:20:02.163Z,11.20
2023-02-11T15:22:39.385Z,8.10
2023-02-11T15:25:15.042Z,10.10
2023-02-11T15:27:47.913Z,8.27
2023-02-11T15:30:24.558Z,7.23
2023-02-11T15:32:59.989Z,13.70
2023-02-11T15:35:35.121Z,11.90
2023-02-11T15:38:02.489Z,14.20
2023-02-11T15:40:35.839Z,11.67
2023-02-11T15:43:07.098Z,11.30
2023-02-11T15:45:57.404Z,14.43
2023-02-11T15:48:36.557Z,11.57
2023-02-11T15:51:34.625Z,12.57
2023-02-11T15:54:17.565Z,11.80
2023-02-11T15:56:49.873Z,14.30
2023-02-11T15:59:45.779Z,11.97
2023-02-11T16:02:34.608Z,12.00
2023-02-11T16:05:08.455Z,11.70
2023-02-11T16:07:51.007Z,11.67
2023-02-11T16:10:34.492Z,12.27
2023-02-11T16:13:07.662Z,12.93
2023-02-11T16:15:34.742Z,8.83
2023-02-11T16:18:05.756Z,11.67
2023-02-11T16:20:34.208Z,14.03
2023-02-11T16:23:04.026Z,9.20
2023-02-11T16:25:35.486Z,10.93
2023-02-11T16:28:02.763Z,7.70
2023-02-11T16:30:40.442Z,12.87
2023-02-11T16:33:11.307Z,11.07
2023-02-11T16:35:38.504Z,9.93
2023-02-11T16:38:05.579Z,12.77
2023-02-11T16:40:32.654Z,10.40
2023-02-11T16:42:59.788Z,13.93
2023-02-11T16:45:26.999Z,12.83
2023-02-11T16:47:54.110Z,12.90
2023-02-11T16:50:25.261Z,6.17
2023-02-11T16:52:52.972Z,10.90
2023-02-11T16:55:22.003Z,12.93
2023-02-11T16:57:49.721Z,13.10
2023-02-11T17:00:17.799Z,14.97
2023-02-11T17:02:45.152Z,15.83
2023-02-11T17:05:23.227Z,15.30
2023-02-11T17:07:50.362Z,13.37
2023-02-11T17:10:23.207Z,15.43
2023-02-11T17:12:51.465Z,13.17
2023-02-11T17:15:18.566Z,12.70
2023-02-11T17:17:45.982Z,13.23
2023-02-11T17:20:14.622Z,17.47
2023-02-11T17:22:41.955Z,14.27
2023-02-11T17:25:09.257Z,14.30
2023-02-11T17:27:36.365Z,14.73
2023-02-11T17:30:04.273Z,12.87
2023-02-11T17:32:31.440Z,15.20
2023-02-11T17:34:58.550Z,10.20
2023-02-11T17:37:25.980Z,11.50
2023-02-11T17:39:53.048Z,12.77
2023-02-11T17:42:20.214Z,16.50
2023-02-11T17:44:47.359Z,11.70
2023-02-11T17:47:14.603Z,11.23
2023-02-11T17:49:42.695Z,10.80
2023-02-11T17:52:10.160Z,9.03
2023-02-11T17:54:38.489Z,10.60
2023-02-11T17:57:05.582Z,9.83
2023-02-11T17:59:35.448Z,13.33
2023-02-11T18:02:04.429Z,12.37
2023-02-11T18:04:32.450Z,10.70
2023-02-11T18:06:59.582Z,8.37
2023-02-11T18:09:27.097Z,10.20
2023-02-11T18:11:54.502Z,11.57
2023-02-11T18:14:23.034Z,11.10
2023-02-11T18:16:53.935Z,12.57
2023-02-11T18:19:21.300Z,11.50
2023-02-11T18:21:50.490Z,12.40
2023-02-11T18:24:18.313Z,11.83
2023-02-11T18:26:45.400Z,8.60
2023-02-11T18:29:12.546Z,13.40
2023-02-11T18:31:39.900Z,10.70
2023-02-11T18:34:10.648Z,11.83
2023-02-11T18:36:38.056Z,10.13
2023-02-11T18:39:06.011Z,10.73
2023-02-11T18:41:33.750Z,10.33
2023-02-11T18:44:03.024Z,10.73
2023-02-11T18:46:31.428Z,7.20
2023-02-11T18:48:58.629Z,8.53
2023-02-11T18:51:26.866Z,11.60
2023-02-11T18:53:54.727Z,8.60
2023-02-11T18:56:24.627Z,10.00
2023-02-11T18:58:52.117Z,7.33
2023-02-11T19:01:27.189Z,11.50
2023-02-11T19:03:57.454Z,9.43
2023-02-11T19:06:34.387Z,10.20
2023-02-11T19:09:09.865Z,11.87
2023-02-11T19:11:52.364Z,9.63
2023-02-11T19:14:26.891Z,10.83
2023-02-11T19:16:57.559Z,11.33
2023-02-11T19:19:29.391Z,12.40
2023-02-11T19:21:57.507Z,8.60
2023-02-11T19:24:25.698Z,9.77
2023-02-11T19:26:57.488Z,12.87
2023-02-11T19:29:26.147Z,12.60
2023-02-11T19:31:53.994Z,11.87
2023-02-11T19:34:22.182Z,13.27
2023-02-11T19:36:50.728Z,13.60
2023-02-11T19:39:18.608Z,11.90
2023-02-11T19:41:45.778Z,14.27
2023-02-11T19:44:14.692Z,13.30
2023-02-11T19:46:42.223Z,12.43
2023-02-11T19:49:11.478Z,12.73
2023-02-11T19:51:39.459Z,11.23
2023-02-11T19:54:08.165Z,14.57
2023-02-11T19:56:35.305Z,14.00
2023-02-11T19:59:03.590Z,13.57
2023-02-11T20:01:30.886Z,11.00
2023-02-11T20:03:57.984Z,11.70
2023-02-11T20:06:29.354Z,8.30
2023-02-11T20:09:02.314Z,8.87
2023-02-11T20:11:31.641Z,12.67
2023-02-11T20:13:59.602Z,12.00
2023-02-11T20:16:46.145Z,12.13
2023-02-11T20:19:18.440Z,13.63
2023-02-11T20:21:48.647Z,15.37
2023-02-11T20:24:20.123Z,14.17
2023-02-11T20:26:48.678Z,10.97
2023-02-11T20:29:19.303Z,15.30
2023-02-11T20:31:46.850Z,11.90
2023-02-11T20:34:14.423Z,10.60
2023-02-11T20:36:41.599Z,12.93
2023-02-11T20:39:10.477Z,15.63
2023-02-11T20:41:41.108Z,15.53
2023-02-11T20:44:10.601Z,17.10
2023-02-11T20:46:42.309Z,14.87
2023-02-11T20:49:15.892Z,11.13
2023-02-11T20:51:43.431Z,13.33
2023-02-11T20:54:18.032Z,15.87
2023-02-11T20:56:48.112Z,14.63
2023-02-11T20:59:16.900Z,14.13
2023-02-11T21:01:48.777Z,13.80
2023-02-11T21:04:20.676Z,13.97
2023-02-11T21:06:56.002Z,12.43
2023-02-11T21:09:28.581Z,14.47
2023-02-11T21:11:56.580Z,13.13
2023-02-11T21:14:25.626Z,10.57
2023-02-11T21:16:52.803Z,13.80
2023-02-11T21:19:20.297Z,10.20
2023-02-11T21:21:47.780Z,11.83
2023-02-11T21:24:15.753Z,13.30
2023-02-11T21:26:43.094Z,12.57
2023-02-11T21:29:11.640Z,12.27
2023-02-11T21:31:39.050Z,12.17
2023-02-11T21:34:07.017Z,13.87
2023-02-11T21:36:34.543Z,14.80
2023-02-11T21:39:03.921Z,14.03
2023-02-11T21:41:31.357Z,11.57
2023-02-11T21:43:58.912Z,14.70
2023-02-11T21:46:27.909Z,11.67
2023-02-11T21:48:55.060Z,10.30
2023-02-11T21:51:25.453Z,12.27
2023-02-11T21:54:01.643Z,12.80
2023-02-11T21:56:31.506Z,11.47
2023-02-11T21:59:00.235Z,11.37
2023-02-11T22:01:35.603Z,11.90
2023-02-11T22:04:03.693Z,8.13
2023-02-11T22:06:34.506Z,8.80
2023-02-11T22:09:08.320Z,9.57
2023-02-11T22:11:36.198Z,11.00
2023-02-11T22:14:03.634Z,11.23
2023-02-11T22:16:31.713Z,10.07
2023-02-11T22:18:59.672Z,13.10
2023-02-11T22:21:27.132Z,15.83
2023-02-11T22:23:55.920Z,10.90
2023-02-11T22:26:25.524Z,12.87
2023-02-11T22:28:55.033Z,9.13
2023-02-11T22:31:26.500Z,7.57
2023-02-11T22:33:53.948Z,10.57
2023-02-11T22:36:30.679Z,12.07
2023-02-11T22:39:03.010Z,10.47
2023-02-11T22:41:30.852Z,9.83
2023-02-11T22:43:58.412Z,11.87
2023-02-11T22:46:26.667Z,10.43
2023-02-11T22:48:53.813Z,10.40
2023-02-11T22:51:25.219Z,12.97
2023-02-11T22:53:57.634Z,14.53
2023-02-11T22:56:26.211Z,11.97
2023-02-11T22:58:57.552Z,9.60
2023-02-11T23:01:24.821Z,12.63
2023-02-11T23:03:51.919Z,9.70
2023-02-11T23:06:19.586Z,12.83
2023-02-11T23:08:47.323Z,12.20
2023-02-11T23:11:25.062Z,11.20
2023-02-11T23:13:54.104Z,11.47
2023-02-11T23:16:28.376Z,10.47
2023-02-11T23:18:55.949Z,13.97
2023-02-11T23:21:27.226Z,8.13
2023-02-11T23:24:02.202Z,15.40
2023-02-11T23:26:29.562Z,8.40
2023-02-11T23:28:59.095Z,8.83
2023-02-11T23:31:40.077Z,11.17
2023-02-11T23:34:08.891Z,10.23
2023-02-11T23:36:37.043Z,10.57
2023-02-11T23:39:04.686Z,9.37
2023-02-11T23:41:31.850Z,10.00
2023-02-11T23:43:59.507Z,8.57
2023-02-11T23:46:27.827Z,10.40
2023-02-11T23:48:55.176Z,10.37
2023-02-11T23:51:23.362Z,8.40
2023-02-11T23:53:51.706Z,8.47
2023-02-11T23:56:24.108Z,13.67
2023-02-11T23:58:54.549Z,11.93
